createdAt,value
2023-12-08T00:03:54.765Z,98.90
2023-12-08T00:09:02.781Z,95.00
2023-12-08T00:14:10.407Z,88.40
2023-12-08T00:19:17.802Z,98.20
2023-12-08T00:24:25.866Z,92.70
2023-12-08T00:29:34.040Z,86.70
2023-12-08T00:34:42.226Z,93.20
2023-12-08T00:39:49.624Z,88.00
2023-12-08T00:44:57.061Z,91.20
2023-12-08T00:50:06.656Z,85.60
2023-12-08T00:55:14.374Z,87.90
2023-12-08T01:00:22.552Z,85.90
2023-12-08T01:05:30.423Z,84.70
2023-12-08T01:10:37.743Z,83.80
2023-12-08T01:15:45.249Z,84.60
2023-12-08T01:20:53.371Z,85.50
2023-12-08T01:26:03.117Z,85.80
2023-12-08T01:31:10.525Z,82.20
2023-12-08T01:36:39.354Z,83.50
2023-12-08T01:41:45.748Z,81.90
2023-12-08T01:46:54.699Z,84.20
2023-12-08T01:52:04.265Z,84.90
2023-12-08T01:57:12.168Z,83.50
2023-12-08T02:02:19.961Z,83.30
2023-12-08T02:07:28.799Z,87.40
2023-12-08T02:12:36.782Z,86.70
2023-12-08T02:17:44.891Z,86.10
2023-12-08T02:22:52.652Z,85.10
2023-12-08T02:28:00.284Z,84.30
2023-12-08T02:33:14.678Z,79.00
2023-12-08T02:38:26.129Z,85.10
2023-12-08T02:43:33.516Z,84.70
2023-12-08T02:48:40.944Z,81.40
2023-12-08T02:53:48.447Z,79.50
2023-12-08T02:58:56.958Z,80.80
2023-12-08T03:04:04.389Z,76.80
2023-12-08T03:09:11.914Z,78.00
2023-12-08T03:14:20.818Z,77.60
2023-12-08T03:19:28.292Z,79.40
2023-12-08T03:24:35.708Z,80.10
2023-12-08T03:29:45.982Z,79.60
2023-12-08T03:34:53.372Z,82.60
2023-12-08T03:40:00.650Z,77.70
2023-12-08T03:45:09.267Z,75.00
2023-12-08T03:50:16.782Z,76.10
2023-12-08T03:55:24.093Z,76.10
2023-12-08T04:00:31.483Z,77.80
2023-12-08T04:05:39.008Z,75.10
2023-12-08T04:10:47.079Z,79.70
2023-12-08T04:15:54.481Z,81.40
2023-12-08T04:21:01.929Z,74.40
2023-12-08T04:26:11.411Z,81.00
2023-12-08T04:31:18.756Z,78.70
2023-12-08T04:36:26.058Z,77.10
2023-12-08T04:41:33.559Z,80.10
2023-12-08T04:46:41.285Z,72.40
2023-12-08T04:51:49.331Z,70.60
2023-12-08T04:56:56.833Z,69.00
2023-12-08T05:02:04.165Z,66.50
2023-12-08T05:07:11.865Z,58.40
2023-12-08T05:12:19.583Z,57.70
2023-12-08T05:17:27.143Z,54.30
2023-12-08T05:22:37.458Z,65.20
2023-12-08T05:27:45.218Z,56.90
2023-12-08T05:32:52.720Z,58.30
2023-12-08T05:38:00.239Z,58.10
2023-12-08T05:43:07.541Z,59.50
2023-12-08T05:48:15.152Z,52.80
2023-12-08T05:53:23.797Z,54.70
2023-12-08T05:58:31.125Z,56.60
2023-12-08T06:03:38.430Z,60.40
2023-12-08T06:08:45.687Z,57.20
2023-12-08T06:13:53.419Z,54.10
2023-12-08T06:19:01.091Z,55.10
2023-12-08T06:24:08.704Z,59.70
2023-12-08T06:29:16.059Z,51.10
2023-12-08T06:34:23.431Z,53.00
2023-12-08T06:39:30.776Z,54.50
2023-12-08T06:44:38.011Z,53.90
2023-12-08T06:49:45.832Z,55.00
2023-12-08T06:54:53.617Z,64.90
2023-12-08T07:00:01.798Z,59.80
2023-12-08T07:05:10.754Z,59.50
2023-12-08T07:10:18.196Z,62.40
2023-12-08T07:15:26.009Z,66.90
2023-12-08T07:20:35.618Z,67.40
2023-12-08T07:25:42.954Z,69.90
2023-12-08T07:30:50.311Z,75.20
2023-12-08T07:35:58.353Z,83.00
2023-12-08T07:41:06.041Z,79.00
2023-12-08T07:46:13.549Z,91.10
2023-12-08T07:51:21.384Z,82.60
2023-12-08T07:56:28.831Z,83.80
2023-12-08T08:01:36.683Z,88.20
2023-12-08T08:06:43.998Z,87.00
2023-12-08T08:11:51.468Z,92.50
2023-12-08T08:16:58.899Z,96.80
2023-12-08T08:22:28.807Z,97.20
2023-12-08T08:27:34.930Z,100.70
2023-12-08T08:32:42.472Z,99.00
2023-12-08T08:37:49.795Z,98.50
2023-12-08T08:42:57.374Z,101.10
2023-12-08T08:48:06.479Z,103.00
2023-12-08T08:53:13.867Z,102.50
2023-12-08T08:58:21.244Z,98.50
2023-12-08T09:03:28.679Z,98.60
2023-12-08T09:08:36.186Z,97.50
2023-12-08T09:13:43.501Z,102.60
2023-12-08T09:18:50.959Z,98.10
2023-12-08T09:23:58.498Z,105.70
2023-12-08T09:29:06.218Z,108.90
2023-12-08T09:34:13.873Z,96.50
2023-12-08T09:39:21.489Z,97.20
2023-12-08T09:44:31.574Z,101.80
2023-12-08T09:49:43.908Z,100.20
2023-12-08T09:54:51.248Z,106.50
2023-12-08T10:00:01.646Z,96.50
2023-12-08T10:05:13.267Z,99.50
2023-12-08T10:10:21.368Z,96.30
2023-12-08T10:15:29.915Z,97.60
2023-12-08T10:20:37.281Z,78.90
2023-12-08T10:25:45.308Z,74.50
2023-12-08T10:30:54.769Z,82.10
2023-12-08T10:36:02.419Z,78.40
2023-12-08T10:41:12.889Z,84.80
2023-12-08T10:46:21.901Z,84.60
2023-12-08T10:51:29.904Z,81.40
2023-12-08T10:56:37.318Z,75.40
2023-12-08T11:01:47.305Z,73.90
2023-12-08T11:07:04.018Z,75.40
2023-12-08T11:12:15.661Z,71.80
2023-12-08T11:17:32.599Z,68.30
2023-12-08T11:22:40.113Z,66.70
2023-12-08T11:27:59.584Z,68.50
2023-12-08T11:33:14.601Z,66.40
2023-12-08T11:38:30.601Z,77.50
2023-12-08T11:43:38.080Z,73.90
2023-12-08T11:48:46.377Z,65.00
2023-12-08T11:53:57.710Z,66.90
2023-12-08T11:59:08.135Z,66.00
2023-12-08T12:04:16.012Z,68.60
2023-12-08T12:09:23.975Z,65.90
2023-12-08T12:14:33.728Z,63.70
2023-12-08T12:19:41.509Z,60.80
2023-12-08T12:24:49.212Z,60.50
2023-12-08T12:29:56.745Z,59.10
2023-12-08T12:35:04.388Z,56.20
2023-12-08T12:40:14.881Z,58.90
2023-12-08T12:45:31.379Z,55.50
2023-12-08T12:50:50.855Z,61.60
2023-12-08T12:56:09.443Z,58.80
2023-12-08T13:01:17.317Z,57.80
2023-12-08T13:06:31.523Z,58.00
2023-12-08T13:11:39.124Z,55.40
2023-12-08T13:16:46.434Z,59.70
2023-12-08T13:21:53.696Z,58.70
2023-12-08T13:27:01.105Z,54.80
2023-12-08T13:32:09.156Z,54.60
2023-12-08T13:37:16.576Z,56.40
2023-12-08T13:42:24.460Z,64.20
2023-12-08T13:47:32.395Z,59.80
2023-12-08T13:52:40.307Z,61.60
2023-12-08T13:57:47.911Z,66.90
2023-12-08T14:02:55.379Z,78.40
2023-12-08T14:08:02.926Z,69.20
2023-12-08T14:13:10.236Z,69.10
2023-12-08T14:18:17.779Z,82.00
2023-12-08T14:23:25.462Z,71.20
2023-12-08T14:28:32.911Z,73.60
2023-12-08T14:33:40.413Z,79.50
2023-12-08T14:38:48.568Z,76.60
2023-12-08T14:43:55.950Z,70.90
2023-12-08T14:49:05.279Z,81.30
2023-12-08T14:54:14.113Z,75.30
2023-12-08T14:59:23.424Z,122.00
2023-12-08T15:04:31.043Z,86.80
2023-12-08T15:09:38.452Z,95.70
2023-12-08T15:14:45.723Z,101.90
2023-12-08T15:19:55.381Z,100.00
2023-12-08T15:25:03.580Z,109.70
2023-12-08T15:30:12.977Z,121.00
2023-12-08T15:35:21.320Z,121.50
2023-12-08T15:40:28.833Z,119.50
2023-12-08T15:45:36.123Z,124.20
2023-12-08T15:50:43.742Z,137.00
2023-12-08T15:55:51.288Z,127.20
2023-12-08T16:00:59.298Z,127.00
2023-12-08T16:06:14.035Z,114.20
2023-12-08T16:11:28.631Z,113.00
2023-12-08T16:16:35.968Z,95.90
2023-12-08T16:21:43.526Z,102.00
2023-12-08T16:26:50.891Z,107.40
2023-12-08T16:31:58.551Z,114.50
2023-12-08T16:37:06.686Z,113.40
2023-12-08T16:42:14.146Z,106.40
2023-12-08T16:47:22.008Z,105.70
2023-12-08T16:52:30.215Z,104.90
2023-12-08T16:57:38.555Z,104.90
2023-12-08T17:02:46.118Z,106.30
2023-12-08T17:07:53.464Z,120.50
2023-12-08T17:13:00.798Z,113.30
2023-12-08T17:18:08.493Z,107.90
2023-12-08T17:23:16.391Z,108.50
2023-12-08T17:28:23.737Z,97.90
2023-12-08T17:33:31.257Z,100.80
2023-12-08T17:38:38.664Z,97.30
2023-12-08T17:43:46.040Z,116.10
2023-12-08T17:48:53.910Z,105.50
2023-12-08T17:54:01.321Z,89.70
2023-12-08T17:59:08.608Z,87.80
2023-12-08T18:04:15.922Z,91.00
2023-12-08T18:09:23.430Z,89.30
2023-12-08T18:14:30.857Z,89.80
2023-12-08T18:19:38.328Z,86.20
2023-12-08T18:24:45.708Z,80.90
2023-12-08T18:29:54.739Z,78.10
2023-12-08T18:35:02.192Z,78.80
2023-12-08T18:40:12.410Z,82.50
2023-12-08T18:45:20.120Z,84.10
2023-12-08T18:50:27.706Z,81.90
2023-12-08T18:55:35.062Z,82.00
2023-12-08T19:00:42.374Z,76.20
2023-12-08T19:05:52.430Z,70.70
2023-12-08T19:10:59.841Z,81.20
2023-12-08T19:16:07.663Z,134.10
2023-12-08T19:21:15.720Z,89.30
2023-12-08T19:26:23.112Z,81.30
2023-12-08T19:31:30.601Z,95.30
2023-12-08T19:36:38.141Z,87.60
2023-12-08T19:41:45.544Z,80.10
2023-12-08T19:46:54.867Z,82.40
2023-12-08T19:52:02.286Z,84.80
2023-12-08T19:57:11.546Z,88.20
2023-12-08T20:02:19.088Z,85.00
2023-12-08T20:07:26.688Z,84.60
2023-12-08T20:12:34.463Z,84.70
2023-12-08T20:17:41.801Z,85.80
2023-12-08T20:22:49.269Z,79.60
2023-12-08T20:27:56.762Z,84.50
2023-12-08T20:33:04.813Z,91.50
2023-12-08T20:38:12.352Z,90.10
2023-12-08T20:43:23.894Z,87.10
2023-12-08T20:48:31.398Z,66.80
2023-12-08T20:53:38.779Z,102.40
2023-12-08T20:58:46.373Z,91.50
2023-12-08T21:03:54.121Z,90.40
2023-12-08T21:09:02.368Z,78.00
2023-12-08T21:14:09.737Z,78.70
2023-12-08T21:19:18.044Z,81.10
2023-12-08T21:24:27.212Z,79.40
2023-12-08T21:29:34.656Z,83.20
2023-12-08T21:34:42.142Z,88.80
2023-12-08T21:39:49.451Z,82.20
2023-12-08T21:44:56.847Z,86.00
2023-12-08T21:50:05.214Z,95.80
2023-12-08T21:55:12.906Z,81.70
2023-12-08T22:00:21.263Z,87.10
2023-12-08T22:05:29.689Z,83.00
2023-12-08T22:10:37.046Z,83.70
2023-12-08T22:15:44.481Z,80.50
2023-12-08T22:20:51.869Z,73.20
2023-12-08T22:25:59.265Z,73.80
2023-12-08T22:31:08.057Z,72.50
2023-12-08T22:36:15.708Z,64.80
2023-12-08T22:41:23.117Z,67.60
2023-12-08T22:46:30.439Z,67.00
2023-12-08T22:51:48.573Z,64.90
2023-12-08T22:57:05.313Z,67.30
2023-12-08T23:02:12.675Z,71.10
2023-12-08T23:07:20.001Z,67.80
2023-12-08T23:12:27.439Z,72.70
2023-12-08T23:17:37.818Z,73.00
2023-12-08T23:22:45.147Z,66.90
2023-12-08T23:27:52.665Z,75.90
2023-12-08T23:33:02.603Z,110.70
2023-12-08T23:38:10.137Z,66.80
2023-12-08T23:43:17.737Z,66.90
2023-12-08T23:48:25.146Z,74.90
2023-12-08T23:53:32.622Z,71.10
2023-12-08T23:58:39.940Z,65.60
